Terminal Aerodrome Forecast
Issued by NWS

Home | Current Version | Previous Version | Text Only | Print | Product List | Glossary On
Versions: 1 2 3 4 5 6 7 8 9 10 11 12 13 14
834
FTUS43 KTOP 101120
TAFFOE
TAF
KFOE 101120Z 1012/1112 14005KT P6SM BKN040
     FM101800 17011KT P6SM BKN050
     FM111000 17009KT P6SM BKN023=

USA.gov is the U.S. government's official web portal to all federal, state and local government web resources and services.